Time;durP1;ratioP1;P1;durP2;ratioP2;P2;SDS_P1;SDS_P2;PMS_P1;PMS_P2;Temp;Humidity;BMP_temperature;BMP_pressure;BME280_temperature;BME280_humidity;BME280_pressure;Samples;Min_cycle;Max_cycle;Signal;HPM_P1;HPM_P2
2022/10/03 00:01:19;;;;;;;9.90;5.53;;;;;;;10.07;83.35;102447.75;4988816;28;20544;-51
2022/10/03 00:04:18;;;;;;;13.70;5.90;;;;;;;10.05;83.51;102449.59;4992912;28;20504;-49
2022/10/03 00:06:59;;;;;;;12.50;5.70;;;;;;;9.94;84.28;102447.34;4982569;28;20520;-52
2022/10/03 00:09:46;;;;;;;13.32;6.15;;;;;;;10.00;83.66;102447.13;4972038;28;20113;-48
2022/10/03 00:12:41;;;;;;;12.38;6.20;;;;;;;10.01;83.65;102445.31;4989423;28;20088;-47
2022/10/03 00:15:20;;;;;;;17.45;6.68;;;;;;;10.04;84.43;102447.00;4980668;28;20062;-48
2022/10/03 00:17:57;;;;;;;14.50;5.82;;;;;;;9.92;84.61;102449.16;4976021;28;20022;-49
2022/10/03 00:20:32;;;;;;;13.95;6.57;;;;;;;9.91;84.93;102446.53;4988709;28;20030;-50
2022/10/03 00:23:07;;;;;;;11.25;6.00;;;;;;;9.92;84.39;102448.31;4989849;28;20062;-48
2022/10/03 00:25:47;;;;;;;16.23;6.13;;;;;;;9.87;84.51;102452.91;5009017;28;20067;-47
2022/10/03 00:29:00;;;;;;;15.10;6.43;;;;;;;9.88;85.42;102451.97;4992128;28;20485;-49
2022/10/03 00:31:45;;;;;;;14.52;6.10;;;;;;;9.88;85.70;102455.53;4994651;28;20042;-49
2022/10/03 00:34:43;;;;;;;14.15;6.53;;;;;;;9.86;85.39;102454.69;4976128;28;20137;-49
2022/10/03 00:37:18;;;;;;;12.10;6.63;;;;;;;9.86;85.45;102459.16;4988274;28;20050;-51
2022/10/03 00:39:54;;;;;;;14.60;5.80;;;;;;;9.73;85.49;102464.84;5001392;28;20030;-49
2022/10/03 00:42:39;;;;;;;14.20;5.75;;;;;;;9.83;84.91;102459.25;4989926;28;20037;-48
2022/10/03 00:45:50;;;;;;;15.07;6.50;;;;;;;9.83;85.60;102476.06;4989124;28;20046;-49
2022/10/03 00:48:50;;;;;;;15.13;5.88;;;;;;;9.78;85.45;102470.88;4971864;28;20045;-50
2022/10/03 00:51:30;;;;;;;11.68;5.95;;;;;;;9.73;84.78;102477.28;4988853;28;20038;-48
2022/10/03 00:54:10;;;;;;;12.93;6.10;;;;;;;9.64;86.04;102481.09;4988998;28;20489;-47
2022/10/03 00:56:50;;;;;;;;;;;;;;;9.83;84.07;102476.06;4988584;28;20034;-48
2022/10/03 00:59:39;;;;;;;13.25;5.57;;;;;;;9.67;84.92;102482.78;4988560;28;19914;-49
2022/10/03 01:02:26;;;;;;;15.93;6.22;;;;;;;9.65;85.85;102480.19;4989130;28;20023;-47
2022/10/03 01:05:07;;;;;;;15.15;6.18;;;;;;;9.58;85.79;102483.97;4987893;28;20057;-49
2022/10/03 01:07:45;;;;;;;13.27;6.03;;;;;;;9.56;85.17;102488.47;4988962;28;20421;-51
2022/10/03 01:10:21;;;;;;;14.55;6.18;;;;;;;9.50;85.61;102489.53;4988155;28;20714;-51
2022/10/03 01:13:04;;;;;;;14.23;6.32;;;;;;;9.50;85.49;102499.28;4990247;28;20043;-50
2022/10/03 01:15:58;;;;;;;10.50;5.35;;;;;;;9.45;86.62;102498.56;4988582;28;20066;-50
2022/10/03 01:18:43;;;;;;;12.75;6.55;;;;;;;9.36;86.53;102497.06;4991147;28;20549;-53
2022/10/03 01:21:29;;;;;;;17.55;6.35;;;;;;;9.38;86.60;102497.88;4971513;28;20052;-53
2022/10/03 01:24:01;;;;;;;13.15;6.40;;;;;;;9.40;86.84;102508.47;4971339;28;20065;-51
2022/10/03 01:26:45;;;;;;;13.13;5.88;;;;;;;9.40;86.05;102508.47;4978703;28;20040;-49
2022/10/03 01:32:27;;;;;;;13.00;6.28;;;;;;;9.40;86.73;102508.47;4971442;28;20107;-50
2022/10/03 01:35:09;;;;;;;14.07;6.38;;;;;;;9.45;86.34;102517.16;4988769;28;20030;-51
2022/10/03 01:37:34;;;;;;;17.08;6.32;;;;;;;9.36;86.82;102502.38;4994829;28;20548;-51
2022/10/03 01:39:59;;;;;;;18.38;6.95;;;;;;;9.37;87.33;102513.88;4988229;28;20050;-50
2022/10/03 01:42:52;;;;;;;12.25;6.38;;;;;;;9.38;87.26;102502.31;4989114;28;20061;-50
2022/10/03 01:45:27;;;;;;;15.23;6.50;;;;;;;9.36;87.01;102510.34;4988031;28;20079;-49
2022/10/03 01:48:16;;;;;;;11.88;6.90;;;;;;;9.41;87.02;102511.09;5000600;28;20036;-50
2022/10/03 01:51:07;;;;;;;15.10;6.43;;;;;;;9.41;87.07;102523.47;4984581;28;20041;-48
2022/10/03 01:53:47;;;;;;;19.48;6.88;;;;;;;9.39;87.86;102514.69;4987936;28;20117;-48
2022/10/03 01:56:24;;;;;;;15.32;7.25;;;;;;;9.39;87.02;102507.59;4991106;28;20030;-49
2022/10/03 01:59:10;;;;;;;13.25;6.68;;;;;;;9.36;87.42;102513.00;4988089;28;20027;-52
2022/10/03 02:01:52;;;;;;;15.90;6.60;;;;;;;9.33;87.71;102511.31;4997237;28;20504;-51
2022/10/03 02:04:43;;;;;;;12.35;6.65;;;;;;;9.31;87.41;102512.28;4969221;28;20122;-50
2022/10/03 02:07:28;;;;;;;13.20;6.72;;;;;;;9.21;87.33;102509.03;4995640;28;20532;-52
2022/10/03 02:10:18;;;;;;;14.93;6.20;;;;;;;9.21;87.47;102510.81;4996554;28;20084;-50
2022/10/03 02:13:00;;;;;;;11.85;6.55;;;;;;;9.16;87.85;102520.72;4987771;28;20050;-50
2022/10/03 02:15:58;;;;;;;17.83;7.65;;;;;;;9.14;87.63;102504.81;4988652;28;20053;-51
2022/10/03 02:18:49;;;;;;;13.32;7.43;;;;;;;9.16;87.85;102516.25;4985828;28;20480;-51
2022/10/03 02:21:14;;;;;;;13.32;7.38;;;;;;;9.12;88.13;102519.03;4988200;28;20022;-50
2022/10/03 02:23:44;;;;;;;13.75;7.57;;;;;;;9.11;87.79;102518.19;4991220;28;20092;-48
2022/10/03 02:26:31;;;;;;;17.08;6.88;;;;;;;9.13;87.90;102524.31;4990186;28;20389;-51
2022/10/03 02:28:56;;;;;;;10.32;6.43;;;;;;;9.05;87.67;102521.88;4990703;28;20042;-49
2022/10/03 02:31:46;;;;;;;13.52;7.72;;;;;;;9.09;87.25;102512.94;4991890;28;20087;-49
2022/10/03 02:34:23;;;;;;;19.02;7.07;;;;;;;9.01;87.80;102511.41;4989838;28;20027;-49
2022/10/03 02:37:10;;;;;;;16.88;7.30;;;;;;;9.06;87.49;102522.78;4990867;28;20018;-50
2022/10/03 02:40:01;;;;;;;15.15;6.30;;;;;;;9.01;86.96;102522.91;4990900;28;20394;-49
2022/10/03 02:42:49;;;;;;;15.02;7.03;;;;;;;9.02;86.71;102526.41;4990913;28;20026;-48
2022/10/03 02:45:32;;;;;;;9.57;6.93;;;;;;;9.02;87.05;102523.75;4990514;28;20041;-50
2022/10/03 02:48:09;;;;;;;10.65;6.53;;;;;;;8.95;86.79;102517.78;4993645;28;20485;-48
2022/10/03 02:50:43;;;;;;;10.90;6.10;;;;;;;8.97;86.37;102512.41;4988176;28;20026;-49
2022/10/03 02:53:12;;;;;;;9.68;6.47;;;;;;;8.89;86.60;102514.44;4975231;28;20038;-49
2022/10/03 02:56:32;;;;;;;14.27;7.18;;;;;;;8.97;86.73;102521.25;4990630;28;20030;-48
2022/10/03 02:59:19;;;;;;;11.57;6.35;;;;;;;8.81;86.68;102520.81;4976952;28;20473;-47
2022/10/03 03:02:09;;;;;;;13.20;7.25;;;;;;;8.89;87.16;102517.97;4983326;28;20034;-51
2022/10/03 03:05:09;;;;;;;13.90;7.22;;;;;;;8.85;87.30;102518.94;4989431;28;20045;-49
2022/10/03 03:07:42;;;;;;;11.20;7.15;;;;;;;8.79;87.40;102516.47;4992493;28;20038;-50
2022/10/03 03:10:27;;;;;;;15.25;7.03;;;;;;;8.74;87.47;102515.75;4990520;28;20034;-48
2022/10/03 03:13:15;;;;;;;13.93;6.97;;;;;;;8.80;87.91;102516.44;4973717;28;20058;-50
2022/10/03 03:15:58;;;;;;;9.23;6.70;;;;;;;8.77;87.36;102521.84;4989639;28;20484;-48
2022/10/03 03:18:56;;;;;;;12.43;6.43;;;;;;;8.71;87.59;102518.50;4983089;28;20029;-51
2022/10/03 03:21:40;;;;;;;10.50;6.72;;;;;;;8.64;87.81;102516.00;4920594;28;20535;-47
2022/10/03 03:24:08;;;;;;;13.00;7.00;;;;;;;8.64;87.46;102523.94;4993944;28;20116;-51
2022/10/03 03:26:43;;;;;;;12.00;6.80;;;;;;;8.66;88.16;102525.72;4990085;28;20057;-49
2022/10/03 03:29:15;;;;;;;11.05;6.53;;;;;;;8.71;87.78;102524.66;4989859;28;20038;-50
2022/10/03 03:32:03;;;;;;;14.90;7.57;;;;;;;8.71;87.97;102532.63;4989439;28;20532;-48
2022/10/03 03:34:32;;;;;;;12.52;6.88;;;;;;;8.69;88.14;102522.97;4990586;28;20054;-49
2022/10/03 03:37:15;;;;;;;14.43;7.20;;;;;;;8.64;87.55;102533.69;4971352;28;20031;-48
2022/10/03 03:39:53;;;;;;;14.63;6.93;;;;;;;8.62;88.67;102532.88;4979367;28;20026;-49
2022/10/03 03:42:35;;;;;;;11.75;6.90;;;;;;;8.57;88.07;102530.34;4989845;28;20090;-50
2022/10/03 03:45:18;;;;;;;14.23;6.95;;;;;;;8.52;88.40;102534.03;4992840;28;20034;-49
2022/10/03 03:47:54;;;;;;;11.00;6.82;;;;;;;8.51;88.18;102529.66;5002872;28;20436;-56
2022/10/03 03:51:02;;;;;;;12.02;7.53;;;;;;;8.57;89.16;102530.34;4989113;28;20037;-56
2022/10/03 03:53:49;;;;;;;11.52;7.22;;;;;;;8.61;88.65;102529.34;4972916;28;20030;-57
2022/10/03 03:56:48;;;;;;;15.98;7.22;;;;;;;8.67;88.73;102533.59;4990347;28;20550;-57
2022/10/03 04:00:06;;;;;;;14.55;6.63;;;;;;;8.64;88.68;102542.50;4989736;28;21297;-56
2022/10/03 04:02:51;;;;;;;14.18;7.15;;;;;;;8.62;88.45;102538.19;4981777;28;20034;-57
2022/10/03 04:05:31;;;;;;;13.70;6.82;;;;;;;8.57;87.60;102540.09;4976351;28;20412;-56
2022/10/03 04:08:22;;;;;;;14.23;7.85;;;;;;;8.57;88.33;102538.31;4990445;28;20095;-56
2022/10/03 04:11:22;;;;;;;12.40;7.32;;;;;;;8.59;88.39;102535.63;4990792;28;20027;-56
2022/10/03 04:14:22;;;;;;;11.10;7.03;;;;;;;8.59;88.06;102540.94;4996245;28;20524;-56
2022/10/03 04:20:26;;;;;;;14.25;7.45;;;;;;;8.57;88.77;102554.22;4989211;28;20036;-56
2022/10/03 04:23:15;;;;;;;13.70;7.47;;;;;;;8.54;89.46;102550.78;4990230;28;20539;-57
2022/10/03 04:26:09;;;;;;;13.30;7.10;;;;;;;8.58;89.07;102548.00;4988093;28;20477;-56
2022/10/03 04:28:48;;;;;;;16.05;6.93;;;;;;;8.54;89.18;102549.00;4989336;28;20045;-55
2022/10/03 04:31:42;;;;;;;15.30;7.43;;;;;;;8.53;88.65;102544.63;4970984;28;20045;-57
2022/10/03 04:34:24;;;;;;;12.88;7.18;;;;;;;8.43;89.07;102545.75;4991924;28;20056;-56
2022/10/03 04:37:05;;;;;;;12.95;6.70;;;;;;;8.36;88.37;102546.81;4993683;28;20029;-56
2022/10/03 04:39:56;;;;;;;11.85;6.50;;;;;;;8.41;88.80;102552.88;4971395;28;20053;-56
2022/10/03 04:42:57;;;;;;;11.95;7.10;;;;;;;8.43;88.78;102536.94;4994880;28;20431;-57
2022/10/03 04:45:44;;;;;;;12.70;7.55;;;;;;;8.48;89.79;102549.16;4988988;28;20058;-56
2022/10/03 04:48:17;;;;;;;9.45;6.53;;;;;;;8.36;89.10;102541.50;4970568;28;20023;-57
2022/10/03 04:51:12;;;;;;;16.80;6.93;;;;;;;8.43;89.49;102543.09;4978058;28;20030;-56
2022/10/03 04:53:51;;;;;;;12.25;6.55;;;;;;;8.43;88.86;102547.53;4989939;28;20412;-56
2022/10/03 04:56:42;;;;;;;16.70;7.38;;;;;;;8.46;89.64;102536.84;4977923;28;20022;-57
2022/10/03 04:59:10;;;;;;;12.75;6.70;;;;;;;8.43;89.63;102536.94;4988691;28;20066;-56
2022/10/03 05:01:49;;;;;;;11.85;6.25;;;;;;;8.45;89.58;102537.78;4986356;28;20382;-56
2022/10/03 05:04:29;;;;;;;10.13;6.75;;;;;;;8.39;89.74;102544.97;5001566;28;20080;-56
2022/10/03 05:07:01;;;;;;;13.95;6.45;;;;;;;8.39;88.97;102547.63;4990863;28;20049;-56
2022/10/03 05:09:51;;;;;;;13.70;6.55;;;;;;;8.43;89.52;102547.53;4988275;28;20480;-56
2022/10/03 05:12:30;;;;;;;15.05;6.68;;;;;;;8.31;89.06;102543.41;4989379;28;20054;-56
2022/10/03 05:15:42;;;;;;;10.17;6.43;;;;;;;8.45;88.45;102559.00;4989543;28;20384;-57
2022/10/03 05:18:41;;;;;;;16.80;6.75;;;;;;;8.36;88.64;102555.63;4974934;28;20368;-57
2022/10/03 05:21:15;;;;;;;;;;;;;;;8.49;87.80;102557.97;4992774;28;20121;-56
2022/10/03 05:24:02;;;;;;;15.50;7.25;;;;;;;8.33;88.93;102560.16;4969694;28;19918;-56
2022/10/03 05:26:52;;;;;;;12.00;6.22;;;;;;;8.28;89.03;102572.66;4969491;28;20061;-56
2022/10/03 05:29:36;;;;;;;13.00;7.28;;;;;;;8.33;89.90;102561.00;4988343;28;20105;-57
2022/10/03 05:32:26;;;;;;;16.08;8.10;;;;;;;8.32;90.41;102561.91;4988386;28;20021;-57
2022/10/03 05:35:18;;;;;;;11.82;7.25;;;;;;;8.34;89.94;102577.78;4991127;28;20029;-56
2022/10/03 05:38:19;;;;;;;14.23;8.05;;;;;;;8.35;90.63;102580.41;4974947;28;20034;-57
2022/10/03 05:41:19;;;;;;;12.65;7.20;;;;;;;8.34;90.35;102585.75;4986958;28;20133;-56
2022/10/03 05:43:59;;;;;;;11.07;6.57;;;;;;;8.31;89.81;102586.69;4980905;28;20030;-57
2022/10/03 05:46:41;;;;;;;13.60;7.63;;;;;;;8.29;90.54;102587.63;4977450;28;20524;-57
2022/10/03 05:49:25;;;;;;;13.70;7.22;;;;;;;8.28;89.79;102593.84;4985577;28;20067;-56
2022/10/03 05:51:57;;;;;;;14.52;7.72;;;;;;;8.27;90.84;102589.47;4977505;28;20086;-57
2022/10/03 05:54:39;;;;;;;14.80;7.75;;;;;;;8.33;91.43;102590.19;4991253;28;20031;-57
2022/10/03 05:57:29;;;;;;;13.80;7.88;;;;;;;8.26;90.85;102583.28;4991482;28;20026;-57
2022/10/03 05:59:58;;;;;;;11.32;7.05;;;;;;;8.34;91.10;102589.25;4986958;28;20049;-56
2022/10/03 06:03:00;;;;;;;11.87;7.20;;;;;;;8.37;90.93;102597.13;4993981;28;20060;-56
2022/10/03 06:06:01;;;;;;;10.23;6.72;;;;;;;8.39;91.20;102592.69;4990245;28;20054;-57
2022/10/03 06:08:38;;;;;;;13.20;6.85;;;;;;;8.40;91.59;102598.88;4990529;28;20039;-56
2022/10/03 06:11:06;;;;;;;12.82;6.43;;;;;;;8.44;90.73;102597.00;4991965;28;20042;-56
2022/10/03 06:14:12;;;;;;;14.73;7.28;;;;;;;8.49;91.52;102606.56;4989791;28;20030;-57
2022/10/03 06:16:41;;;;;;;12.50;7.28;;;;;;;8.49;91.42;102606.56;4974140;28;20034;-56
2022/10/03 06:19:12;;;;;;;14.80;7.32;;;;;;;8.52;92.09;102597.69;4988401;28;20038;-57
2022/10/03 06:21:56;;;;;;;11.57;7.20;;;;;;;8.55;92.57;102600.25;4972730;28;20030;-56
2022/10/03 06:24:40;;;;;;;14.93;7.57;;;;;;;8.58;92.42;102605.47;4994041;28;20472;-57
2022/10/03 06:27:17;;;;;;;11.48;7.38;;;;;;;8.60;92.35;102603.66;4986879;28;20038;-56
2022/10/03 06:29:58;;;;;;;13.88;7.43;;;;;;;8.61;92.60;102608.03;4990796;28;20037;-56
2022/10/03 06:33:02;;;;;;;17.85;8.68;;;;;;;8.62;92.66;102610.66;4989372;28;20113;-56
2022/10/03 06:35:58;;;;;;;10.57;7.50;;;;;;;8.59;92.36;102601.94;4981744;28;20034;-57
2022/10/03 06:38:51;;;;;;;11.85;7.80;;;;;;;8.62;92.85;102612.47;4970896;28;20406;-56
2022/10/03 06:41:22;;;;;;;16.75;8.68;;;;;;;8.59;92.78;102608.09;4976902;28;20030;-57
2022/10/03 06:43:56;;;;;;;16.35;9.00;;;;;;;8.61;93.04;102608.91;4991052;28;20500;-56
2022/10/03 06:47:08;;;;;;;13.73;8.68;;;;;;;8.66;93.13;102619.41;4991316;28;20099;-56
2022/10/03 06:49:55;;;;;;;14.05;8.90;;;;;;;8.66;93.28;102611.44;4987668;28;20431;-56
2022/10/03 06:52:42;;;;;;;16.33;9.30;;;;;;;8.69;93.41;102607.84;4971920;28;20038;-57
2022/10/03 06:55:45;;;;;;;14.43;8.85;;;;;;;8.76;93.13;102607.63;4989520;28;20030;-56
2022/10/03 06:58:32;;;;;;;18.17;9.50;;;;;;;8.78;93.96;102607.59;4991046;28;20027;-56
2022/10/03 07:01:00;;;;;;;12.45;9.27;;;;;;;8.80;93.53;102611.09;4989034;28;20026;-56
2022/10/03 07:03:56;;;;;;;16.80;9.25;;;;;;;8.81;93.98;102613.69;4991193;28;20035;-56
2022/10/03 07:06:36;;;;;;;20.42;9.45;;;;;;;8.80;94.08;102622.56;4990672;28;20129;-57
2022/10/03 07:09:29;;;;;;;16.02;9.00;;;;;;;8.87;94.59;102628.56;4990733;28;20031;-56
2022/10/03 07:12:05;;;;;;;14.88;9.70;;;;;;;8.91;94.48;102627.56;4989577;28;20100;-56
2022/10/03 07:14:54;;;;;;;15.23;9.93;;;;;;;8.99;95.20;102628.22;4991044;28;20473;-57
2022/10/03 07:17:22;;;;;;;18.20;10.57;;;;;;;9.07;95.16;102620.94;4976766;28;20440;-56
2022/10/03 07:20:05;;;;;;;16.60;9.45;;;;;;;9.13;94.97;102619.03;4986678;28;20518;-56
2022/10/03 07:22:40;;;;;;;14.18;8.98;;;;;;;9.17;95.46;102623.31;4988270;28;20384;-57
2022/10/03 07:25:43;;;;;;;16.48;9.10;;;;;;;9.27;95.29;102632.78;4975417;28;20038;-56
2022/10/03 07:28:15;;;;;;;18.52;9.63;;;;;;;9.29;95.65;102631.81;4982498;28;20420;-57
2022/10/03 07:31:08;;;;;;;15.63;10.48;;;;;;;9.38;96.13;102633.31;4985740;28;20109;-56
2022/10/03 07:33:36;;;;;;;16.98;9.93;;;;;;;9.47;96.54;102629.50;4990053;28;20106;-57
2022/10/03 07:39:17;;;;;;;22.98;10.45;;;;;;;9.67;97.33;102634.22;4975335;28;20038;-57
2022/10/03 07:41:59;;;;;;;15.77;9.73;;;;;;;9.73;96.73;102637.56;4993469;28;20026;-57
2022/10/03 07:44:56;;;;;;;14.50;9.68;;;;;;;9.88;96.44;102646.88;4993824;28;20066;-57
2022/10/03 07:47:31;;;;;;;16.58;9.90;;;;;;;9.97;96.67;102643.91;4989444;28;20022;-57
2022/10/03 07:49:56;;;;;;;24.65;11.80;;;;;;;10.10;97.32;102654.16;4988306;28;20407;-57
2022/10/03 07:52:28;;;;;;;16.45;9.48;;;;;;;10.18;97.05;102654.78;4990132;28;20030;-57
2022/10/03 07:54:53;;;;;;;20.10;10.45;;;;;;;10.30;97.38;102656.22;4990191;28;20393;-56
2022/10/03 07:57:26;;;;;;;19.00;10.45;;;;;;;10.38;96.92;102654.16;4990584;28;20030;-57
2022/10/03 08:00:14;;;;;;;14.57;10.68;;;;;;;10.51;96.85;102654.63;4990317;28;20022;-57
2022/10/03 08:02:55;;;;;;;17.42;11.38;;;;;;;10.64;97.00;102664.78;4995224;28;20473;-57
2022/10/03 08:05:36;;;;;;;15.65;10.70;;;;;;;10.72;96.85;102658.34;4988155;28;20049;-56
2022/10/03 08:08:34;;;;;;;22.35;10.48;;;;;;;10.85;96.57;102665.84;4989330;28;20034;-57
2022/10/03 08:11:14;;;;;;;17.85;9.25;;;;;;;10.98;96.88;102660.97;4990081;28;20058;-57
2022/10/03 08:13:59;;;;;;;16.67;10.15;;;;;;;11.11;96.75;102656.91;4990158;28;20377;-56
2022/10/03 08:17:05;;;;;;;17.23;10.30;;;;;;;11.32;96.50;102665.03;4990275;28;20030;-57
2022/10/03 08:20:00;;;;;;;15.45;9.93;;;;;;;11.51;96.06;102654.59;4980267;28;20062;-57
2022/10/03 08:22:48;;;;;;;14.73;10.00;;;;;;;11.65;95.62;102660.25;4984417;28;20035;-57
2022/10/03 08:25:13;;;;;;;16.02;9.10;;;;;;;11.83;95.01;102656.00;4989294;28;20073;-56
2022/10/03 08:28:23;;;;;;;27.73;9.55;;;;;;;11.92;95.06;102657.47;4990183;28;20558;-57
2022/10/03 08:31:26;;;;;;;15.00;8.73;;;;;;;12.05;94.50;102658.72;4995096;28;20053;-57
2022/10/03 08:33:52;;;;;;;16.83;9.30;;;;;;;12.11;93.21;102663.81;4976770;28;20018;-56
2022/10/03 08:36:44;;;;;;;15.68;8.98;;;;;;;12.23;92.94;102659.75;4989934;28;20027;-56
2022/10/03 08:39:44;;;;;;;16.50;8.75;;;;;;;12.30;93.11;102663.94;4988900;28;20109;-56
2022/10/03 08:42:16;;;;;;;17.35;8.88;;;;;;;12.41;93.73;102671.47;5001872;28;20042;-57
2022/10/03 08:44:59;;;;;;;16.58;9.23;;;;;;;12.49;93.63;102669.38;5009167;28;20022;-57
2022/10/03 08:47:40;;;;;;;14.52;8.52;;;;;;;12.63;93.54;102668.78;5009116;28;20032;-57
2022/10/03 08:50:23;;;;;;;13.68;8.68;;;;;;;12.73;92.99;102664.78;4980033;28;20080;-57
2022/10/03 08:52:49;;;;;;;16.08;8.30;;;;;;;12.78;93.81;102664.59;4989926;28;20485;-56
2022/10/03 08:55:48;;;;;;;14.10;7.30;;;;;;;12.89;92.78;102673.00;4989559;28;20054;-57
2022/10/03 08:58:17;;;;;;;20.23;8.13;;;;;;;13.12;91.65;102664.00;4988667;28;20072;-57
2022/10/03 09:01:22;;;;;;;15.32;6.80;;;;;;;13.29;90.49;102673.94;4991552;28;20030;-57
2022/10/03 09:04:22;;;;;;;16.98;6.68;;;;;;;13.58;90.06;102661.91;4969369;28;20030;-57
2022/10/03 09:06:53;;;;;;;14.65;7.30;;;;;;;13.70;87.36;102664.00;4936872;28;20030;-57
2022/10/03 09:09:52;;;;;;;17.30;7.20;;;;;;;13.73;88.27;102660.31;4969993;28;20031;-57
2022/10/03 09:12:45;;;;;;;15.32;6.53;;;;;;;13.94;87.57;102674.47;4984442;28;20054;-57
2022/10/03 09:15:25;;;;;;;17.17;5.78;;;;;;;14.11;86.66;102676.34;4988124;28;20481;-56
2022/10/03 09:18:14;;;;;;;15.65;7.45;;;;;;;14.13;87.30;102671.81;4988861;28;20121;-57
2022/10/03 09:21:14;;;;;;;13.73;5.82;;;;;;;14.29;86.39;102670.09;4973375;28;20034;-57
2022/10/03 09:24:21;;;;;;;14.13;5.63;;;;;;;14.68;86.59;102666.41;4988941;28;20030;-56
2022/10/03 09:27:17;;;;;;;9.63;3.60;;;;;;;14.91;83.71;102662.50;4993929;28;20062;-56
2022/10/03 09:30:22;;;;;;;12.15;4.18;;;;;;;15.17;82.67;102663.81;4977479;28;20030;-56
2022/10/03 09:33:28;;;;;;;10.00;3.35;;;;;;;15.31;80.86;102663.09;4973132;28;20121;-57
2022/10/03 09:36:17;;;;;;;12.15;4.03;;;;;;;15.43;80.24;102659.72;5005481;28;20083;-56
2022/10/03 09:39:10;;;;;;;9.20;3.65;;;;;;;15.62;78.77;102649.75;4975422;28;20035;-56
2022/10/03 09:41:37;;;;;;;10.48;3.47;;;;;;;15.66;76.78;102650.44;4999499;28;20038;-57
2022/10/03 09:44:16;;;;;;;10.68;3.63;;;;;;;15.55;78.26;102651.00;5011919;28;20029;-57
2022/10/03 09:49:51;;;;;;;14.25;3.70;;;;;;;15.33;79.14;102632.56;4988225;28;20281;-57
2022/10/03 09:52:36;;;;;;;8.82;3.22;;;;;;;15.47;77.25;102647.91;4972027;28;20062;-57
2022/10/03 09:55:13;;;;;;;8.50;3.30;;;;;;;15.42;77.42;102647.28;4972064;28;20055;-56
2022/10/03 09:58:14;;;;;;;13.15;3.28;;;;;;;15.41;76.12;102642.84;4985273;28;20030;-57
2022/10/03 10:00:49;;;;;;;11.77;3.60;;;;;;;15.50;74.35;102644.16;4981828;28;20034;-57
2022/10/03 10:03:35;;;;;;;11.35;3.47;;;;;;;15.62;76.63;102639.00;4992206;28;20480;-56
2022/10/03 10:06:33;;;;;;;10.10;3.35;;;;;;;15.57;76.70;102638.41;4998322;28;20167;-57
2022/10/03 10:09:29;;;;;;;8.48;3.00;;;;;;;15.87;76.79;102641.19;4996490;28;20042;-56
2022/10/03 10:12:01;;;;;;;7.72;2.47;;;;;;;15.97;73.26;102640.66;4979131;28;20405;-56
2022/10/03 10:14:29;;;;;;;13.38;2.63;;;;;;;16.07;73.75;102636.53;4990211;28;20080;-56
2022/10/03 10:17:10;;;;;;;9.05;2.78;;;;;;;16.28;73.51;102635.25;4991193;28;20042;-57
2022/10/03 10:19:53;;;;;;;6.60;2.55;;;;;;;16.30;72.14;102636.06;4989656;28;20104;-57
2022/10/03 10:23:16;;;;;;;10.25;2.72;;;;;;;16.44;73.46;102642.41;4992619;28;20030;-56
2022/10/03 10:25:50;;;;;;;7.93;2.85;;;;;;;16.63;71.75;102642.19;5011345;28;20030;-56
2022/10/03 10:28:21;;;;;;;9.02;2.40;;;;;;;16.95;71.18;102638.44;5011445;28;20499;-57
2022/10/03 10:31:15;;;;;;;6.75;2.30;;;;;;;16.90;70.36;102639.69;4991286;28;20038;-57
2022/10/03 10:34:22;;;;;;;8.27;2.80;;;;;;;16.98;68.76;102635.56;4983063;28;20037;-57
2022/10/03 10:36:59;;;;;;;8.05;2.45;;;;;;;16.92;67.05;102632.41;4974305;28;20042;-56
2022/10/03 10:39:52;;;;;;;6.05;2.13;;;;;;;17.12;67.81;102628.47;4983181;28;20036;-56
2022/10/03 10:42:51;;;;;;;7.15;2.50;;;;;;;17.70;68.04;102631.00;4991196;28;20117;-57
2022/10/03 10:45:30;;;;;;;8.32;2.35;;;;;;;17.99;62.17;102630.97;4997285;28;20030;-57
2022/10/03 10:48:12;;;;;;;7.78;2.58;;;;;;;18.20;65.57;102622.44;4990901;28;20404;-57
2022/10/03 10:51:05;;;;;;;7.63;2.33;;;;;;;18.23;63.82;102641.94;4973209;28;20026;-56
2022/10/03 10:54:08;;;;;;;7.80;2.38;;;;;;;18.27;64.51;102639.94;4970162;28;20076;-57
2022/10/03 10:57:06;;;;;;;8.30;2.15;;;;;;;18.10;64.87;102643.75;4989698;28;20034;-57
2022/10/03 10:59:50;;;;;;;5.90;2.33;;;;;;;17.85;65.04;102642.66;4969447;28;20027;-57
2022/10/03 11:02:37;;;;;;;9.00;2.20;;;;;;;17.54;64.68;102641.03;4978222;28;20026;-57
2022/10/03 11:05:20;;;;;;;8.60;2.58;;;;;;;17.34;65.51;102642.31;4990423;28;20030;-57
2022/10/03 11:08:16;;;;;;;8.82;2.55;;;;;;;17.16;66.43;102635.41;4990731;28;20034;-56
2022/10/03 11:11:26;;;;;;;8.50;2.30;;;;;;;17.22;67.13;102638.56;4973169;28;20116;-57
2022/10/03 11:14:32;;;;;;;6.18;2.47;;;;;;;17.62;66.02;102641.44;4992675;28;20059;-56
2022/10/03 11:17:28;;;;;;;9.75;2.80;;;;;;;17.97;63.59;102637.41;4990525;28;20046;-56
2022/10/03 11:20:12;;;;;;;6.97;2.53;;;;;;;17.67;64.61;102630.34;5003251;28;20384;-56
2022/10/03 11:22:47;;;;;;;8.75;2.70;;;;;;;17.43;66.12;102627.41;5010818;28;20026;-57
2022/10/03 11:25:34;;;;;;;7.97;2.13;;;;;;;17.43;61.99;102630.09;5010350;28;20036;-57
2022/10/03 11:28:18;;;;;;;6.35;2.38;;;;;;;18.32;62.10;102618.91;4995741;28;20030;-57
2022/10/03 11:30:46;;;;;;;7.55;2.47;;;;;;;19.22;55.62;102626.13;4991673;28;20030;-56
2022/10/03 11:33:49;;;;;;;7.05;2.00;;;;;;;20.29;56.23;102621.94;4984273;28;20034;-56
2022/10/03 11:36:42;;;;;;;9.48;2.13;;;;;;;21.34;55.80;102618.22;4990932;28;20448;-57
2022/10/03 11:39:30;;;;;;;6.85;2.05;;;;;;;22.17;52.46;102623.13;4990755;28;20378;-57
2022/10/03 11:42:14;;;;;;;7.97;1.60;;;;;;;22.64;52.39;102614.66;4967769;28;20474;-57
2022/10/03 11:44:54;;;;;;;4.47;1.63;;;;;;;23.25;46.15;102627.47;4953904;28;20042;-57
2022/10/03 11:47:23;;;;;;;5.70;1.92;;;;;;;23.94;43.28;102627.56;4970322;28;20027;-57
2022/10/03 11:50:25;;;;;;;7.22;1.98;;;;;;;24.39;45.83;102627.00;4970380;28;20026;-58
2022/10/03 11:53:18;;;;;;;4.53;1.50;;;;;;;24.69;46.08;102625.97;4976696;28;20026;-57
2022/10/03 11:55:52;;;;;;;8.73;2.97;;;;;;;23.32;43.65;102631.34;5009300;28;20048;-57
2022/10/03 11:58:37;;;;;;;6.95;1.90;;;;;;;22.13;48.51;102626.22;5010385;28;20434;-57
2022/10/03 12:01:15;;;;;;;5.53;1.70;;;;;;;21.12;49.68;102620.91;5010006;28;20032;-57
2022/10/03 12:04:06;;;;;;;9.52;2.08;;;;;;;20.80;52.65;102613.53;5007975;28;20380;-58
2022/10/03 12:10:18;;;;;;;5.38;2.00;;;;;;;19.70;54.52;102618.19;4970791;28;20056;-57
2022/10/03 12:12:49;;;;;;;8.68;2.22;;;;;;;19.01;54.21;102619.59;4970641;28;20571;-57
2022/10/03 12:15:26;;;;;;;9.65;2.00;;;;;;;18.81;56.12;102619.13;4981373;28;20030;-56
2022/10/03 12:18:04;;;;;;;6.55;2.30;;;;;;;18.64;57.10;102618.53;4992276;28;20033;-57
2022/10/03 12:20:46;;;;;;;7.60;2.17;;;;;;;18.96;57.12;102609.09;5007178;28;20461;-57
2022/10/03 12:23:52;;;;;;;7.50;2.33;;;;;;;20.94;52.06;102607.00;4990247;28;20023;-57
2022/10/03 12:26:42;;;;;;;6.38;2.00;;;;;;;22.61;48.25;102604.06;4976105;28;20026;-57
2022/10/03 12:29:13;;;;;;;5.22;1.75;;;;;;;23.12;45.34;102611.41;4998758;28;20493;-57
2022/10/03 12:32:00;;;;;;;7.25;1.80;;;;;;;22.58;44.15;102607.06;5009667;28;20056;-57
2022/10/03 12:34:36;;;;;;;5.50;1.73;;;;;;;21.47;48.45;102601.88;5008706;28;20120;-56
2022/10/03 12:37:21;;;;;;;6.15;2.20;;;;;;;20.84;48.29;102596.06;5009436;28;20022;-57
2022/10/03 12:40:09;;;;;;;9.15;2.13;;;;;;;20.12;51.97;102597.06;5007330;28;20038;-55
2022/10/03 12:42:34;;;;;;;8.83;2.20;;;;;;;19.66;53.18;102600.50;4979475;28;20030;-57
2022/10/03 12:45:05;;;;;;;6.60;2.42;;;;;;;19.36;53.47;102592.78;4989685;28;20033;-57
2022/10/03 12:47:33;;;;;;;7.95;3.00;;;;;;;19.12;54.54;102589.13;4988772;28;20022;-57
2022/10/03 12:50:07;;;;;;;5.60;2.17;;;;;;;18.99;53.80;102583.75;4989030;28;20038;-56
2022/10/03 12:53:00;;;;;;;8.95;2.20;;;;;;;18.98;54.46;102582.91;4990829;28;20088;-57
2022/10/03 12:55:37;;;;;;;7.18;2.40;;;;;;;18.89;56.82;102580.84;4989404;28;20125;-57
2022/10/03 12:58:32;;;;;;;11.52;2.90;;;;;;;19.30;55.88;102587.84;4989687;28;20033;-57
2022/10/03 13:01:19;;;;;;;8.05;2.45;;;;;;;19.44;55.21;102586.81;4970160;28;20023;-57
2022/10/03 13:03:57;;;;;;;7.90;2.50;;;;;;;19.41;53.05;102578.94;4969499;28;20041;-56